Terminal Aerodrome Forecast
Issued by NWS

Home | Current Version | Previous Version | Graphics & Text | Print | Product List | Glossary On
Versions: 1 2 3 4 5 6 7 8 9 10 11 12 13 14 15 16 17 18
000
FTUS43 KMPX 291154 AAA
TAFAXN
TAF AMD
KAXN 291154Z 2912/3012 34009KT P6SM VCSH BKN003 OVC010
     FM291400 36014G20KT 4SM -SHRA BKN008 OVC015
     FM291700 35015G22KT P6SM SCT008 OVC012
     FM292000 35015G22KT P6SM FEW030 SCT200
     FM300200 36010KT P6SM SKC=

USA.gov is the U.S. government's official web portal to all federal, state and local government web resources and services.